Terminal Aerodrome Forecast
Issued by NWS Albany, NY

Home | Current Version | Previous Version | Text Only | Print | Product List | Glossary On
Versions: 1 2 3 4 5 6 7 8 9 10 11 12 13 14 15 16 17 18 19 20 21 22 23
000
FTUS41 KALY 012300
TAFGFL
TAF
KGFL 012333Z 0200/0224 17005KT P6SM FEW040 BKN250
     FM020400 VRB03KT 5SM BR SCT050 BKN250
      TEMPO 0204/0208 2SM BR BKN007
     FM020800 00000KT 1 1/2SM BR BKN005 OVC120
     FM021300 VRB03KT P6SM SCT040 BKN100
     FM021600 17005KT P6SM VCSH BKN060=

USA.gov is the U.S. government's official web portal to all federal, state and local government web resources and services.